Time;durP1;ratioP1;P1;durP2;ratioP2;P2;SDS_P1;SDS_P2;PMS_P1;PMS_P2;Temp;Humidity;BMP_temperature;BMP_pressure;BME280_temperature;BME280_humidity;BME280_pressure;Samples;Min_cycle;Max_cycle;Signal;HPM_P1;HPM_P2
2022/09/27 00:02:20;;;;;;;8.85;7.80;;;18.60;99.90;;;;;;5093406;28;20024;-62
2022/09/27 00:04:45;;;;;;;8.40;6.93;;;18.60;99.90;;;;;;5093527;28;20359;-61
2022/09/27 00:07:11;;;;;;;6.85;6.22;;;18.50;99.90;;;;;;5093446;28;20020;-61
2022/09/27 00:09:37;;;;;;;6.43;5.70;;;18.50;99.90;;;;;;5092972;28;20135;-61
2022/09/27 00:12:03;;;;;;;6.88;6.18;;;18.50;99.90;;;;;;5093199;28;20074;-61
2022/09/27 00:14:29;;;;;;;7.43;6.13;;;18.50;99.90;;;;;;5093387;28;20438;-61
2022/09/27 00:16:55;;;;;;;11.85;9.30;;;18.50;99.90;;;;;;5093537;28;20052;-61
2022/09/27 00:19:22;;;;;;;8.60;7.70;;;18.50;99.90;;;;;;5093305;28;20060;-63
2022/09/27 00:21:49;;;;;;;8.60;7.70;;;18.40;99.90;;;;;;5093412;28;20035;-60
2022/09/27 00:24:20;;;;;;;8.32;7.13;;;18.40;99.90;;;;;;5093356;28;20474;-61
2022/09/27 00:26:47;;;;;;;11.95;9.27;;;18.40;99.90;;;;;;5093279;28;20023;-62
2022/09/27 00:29:13;;;;;;;9.23;8.27;;;18.40;99.90;;;;;;5093077;28;20048;-61
2022/09/27 00:31:39;;;;;;;8.23;7.45;;;18.40;99.90;;;;;;5093060;28;20027;-61
2022/09/27 00:34:07;;;;;;;8.70;7.80;;;18.40;99.90;;;;;;5093485;28;20032;-60
2022/09/27 00:36:33;;;;;;;7.72;6.93;;;18.30;99.90;;;;;;5093278;28;20021;-62
2022/09/27 00:39:00;;;;;;;9.57;8.23;;;18.30;99.90;;;;;;5093230;28;20069;-61
2022/09/27 00:41:32;;;;;;;7.90;6.90;;;18.30;99.90;;;;;;5092882;28;20094;-62
2022/09/27 00:44:03;;;;;;;7.03;6.33;;;18.30;99.90;;;;;;5093344;28;20028;-61
2022/09/27 00:47:00;;;;;;;7.45;6.43;;;18.30;99.90;;;;;;5092958;28;20121;-61
2022/09/27 00:49:39;;;;;;;8.20;6.68;;;18.30;99.90;;;;;;5092706;28;20088;-62
2022/09/27 00:52:15;;;;;;;11.07;8.52;;;18.30;99.90;;;;;;5092928;28;20501;-61
2022/09/27 00:54:45;;;;;;;9.45;7.55;;;18.30;99.90;;;;;;5093803;28;20031;-62
2022/09/27 00:57:11;;;;;;;10.65;9.27;;;18.30;99.90;;;;;;5096507;28;20111;-61
2022/09/27 00:59:45;;;;;;;8.88;7.97;;;18.30;99.90;;;;;;5096741;28;20105;-60
2022/09/27 01:02:10;;;;;;;;;;;18.20;99.90;;;;;;5097138;28;20027;-62
2022/09/27 01:04:38;;;;;;;7.57;6.85;;;18.20;99.90;;;;;;5096623;28;19912;-62
2022/09/27 01:07:04;;;;;;;7.55;6.85;;;18.20;99.90;;;;;;5096613;28;20024;-61
2022/09/27 01:09:31;;;;;;;8.98;6.68;;;18.20;99.90;;;;;;5096381;28;20517;-60
2022/09/27 01:12:15;;;;;;;13.02;10.85;;;18.20;99.90;;;;;;5096333;28;20038;-60
2022/09/27 01:14:44;;;;;;;10.43;9.32;;;18.20;99.90;;;;;;5096416;28;20077;-62
2022/09/27 01:17:16;;;;;;;10.73;9.63;;;18.00;99.90;;;;;;5096363;28;20020;-61
2022/09/27 01:20:06;;;;;;;8.63;7.82;;;18.10;99.90;;;;;;5096413;28;20024;-62
2022/09/27 01:23:02;;;;;;;9.18;7.70;;;18.00;99.90;;;;;;5096446;28;20012;-61
2022/09/27 01:25:39;;;;;;;9.48;8.57;;;18.00;99.90;;;;;;5096042;28;20024;-61
2022/09/27 01:28:31;;;;;;;13.57;9.98;;;18.00;99.90;;;;;;5096153;28;20028;-62
2022/09/27 01:31:07;;;;;;;10.45;8.98;;;18.00;99.90;;;;;;5096159;28;20458;-60
2022/09/27 01:33:45;;;;;;;9.50;8.27;;;18.00;99.90;;;;;;5096117;28;20382;-60
2022/09/27 01:36:17;;;;;;;12.35;9.80;;;18.00;99.90;;;;;;5096376;28;20039;-62
2022/09/27 01:39:11;;;;;;;12.68;10.55;;;18.00;99.90;;;;;;5095872;28;20028;-60
2022/09/27 01:41:46;;;;;;;9.77;8.77;;;18.00;99.90;;;;;;5096219;28;20103;-62
2022/09/27 01:44:34;;;;;;;9.32;8.00;;;18.00;99.90;;;;;;5095949;28;20486;-60
2022/09/27 01:47:06;;;;;;;8.82;7.47;;;18.00;99.90;;;;;;5095935;28;20028;-62
2022/09/27 01:49:53;;;;;;;9.33;7.63;;;18.00;99.90;;;;;;5096014;28;20028;-62
2022/09/27 01:52:26;;;;;;;8.95;7.55;;;18.10;99.90;;;;;;5095936;28;20012;-60
2022/09/27 01:54:57;;;;;;;11.55;7.55;;;18.10;99.90;;;;;;5095442;28;20438;-61
2022/09/27 01:57:30;;;;;;;7.22;6.53;;;18.10;99.90;;;;;;5095659;28;20096;-61
2022/09/27 02:00:01;;;;;;;9.70;6.72;;;18.10;99.90;;;;;;5095563;28;20020;-62
2022/09/27 02:02:29;;;;;;;7.30;6.28;;;18.10;99.90;;;;;;5095762;28;20024;-61
2022/09/27 02:05:00;;;;;;;8.07;6.22;;;18.10;99.90;;;;;;5095768;28;20107;-61
2022/09/27 02:07:31;;;;;;;11.93;6.03;;;18.10;99.90;;;;;;5095340;28;20028;-61
2022/09/27 02:10:04;;;;;;;9.30;6.45;;;18.10;99.90;;;;;;5095606;28;20054;-62
2022/09/27 02:12:36;;;;;;;6.45;5.50;;;18.10;99.90;;;;;;5095362;28;20016;-62
2022/09/27 02:15:12;;;;;;;5.45;4.95;;;18.10;99.90;;;;;;5095239;28;20017;-61
2022/09/27 02:17:57;;;;;;;5.60;5.10;;;18.10;99.90;;;;;;5095299;28;20478;-62
2022/09/27 02:20:41;;;;;;;6.80;5.43;;;18.10;99.90;;;;;;5095563;28;20027;-61
2022/09/27 02:23:22;;;;;;;19.20;8.05;;;18.10;99.90;;;;;;5094855;28;20412;-62
2022/09/27 02:25:59;;;;;;;6.10;5.30;;;18.10;99.90;;;;;;5095660;28;20107;-62
2022/09/27 02:28:34;;;;;;;9.45;6.22;;;18.00;99.90;;;;;;5094935;28;20032;-61
2022/09/27 02:31:00;;;;;;;10.30;7.53;;;17.90;99.90;;;;;;5095308;28;20035;-62
2022/09/27 02:33:32;;;;;;;6.68;5.97;;;18.00;99.90;;;;;;5095219;28;20028;-61
2022/09/27 02:35:57;;;;;;;6.35;5.75;;;17.90;99.90;;;;;;5094830;28;20453;-61
2022/09/27 02:38:23;;;;;;;7.63;6.32;;;17.90;99.90;;;;;;5094985;28;20028;-61
2022/09/27 02:40:49;;;;;;;8.90;7.00;;;17.90;99.90;;;;;;5094887;28;20016;-60
2022/09/27 02:43:18;;;;;;;6.43;5.72;;;17.90;99.90;;;;;;5094918;28;20052;-60
2022/09/27 02:46:05;;;;;;;8.50;7.13;;;17.80;99.90;;;;;;5095031;28;20259;-62
2022/09/27 02:48:38;;;;;;;7.93;6.38;;;17.90;99.90;;;;;;5094481;28;20068;-61
2022/09/27 02:51:07;;;;;;;;;;;17.80;99.90;;;;;;5095394;28;20020;-61
2022/09/27 02:53:58;;;;;;;7.55;6.13;;;17.80;99.90;;;;;;5094318;28;20008;-61
2022/09/27 02:56:27;;;;;;;7.90;6.47;;;17.70;99.90;;;;;;5093832;28;20071;-62
2022/09/27 02:58:52;;;;;;;6.13;5.53;;;17.70;99.90;;;;;;5094558;28;20036;-60
2022/09/27 03:01:31;;;;;;;5.63;5.10;;;17.80;99.90;;;;;;5094338;28;20102;-61
2022/09/27 03:04:09;;;;;;;13.13;9.25;;;17.80;99.90;;;;;;5094441;28;20382;-62
2022/09/27 03:06:40;;;;;;;9.27;8.38;;;17.80;99.90;;;;;;5094312;28;20020;-63
2022/09/27 03:09:22;;;;;;;7.80;7.07;;;17.70;99.90;;;;;;5094103;28;20051;-62
2022/09/27 03:11:48;;;;;;;7.05;6.35;;;17.60;99.90;;;;;;5094200;28;20017;-62
2022/09/27 03:14:14;;;;;;;6.50;5.90;;;17.70;99.90;;;;;;5094334;28;20043;-62
2022/09/27 03:16:39;;;;;;;7.05;6.13;;;17.70;99.90;;;;;;5094213;28;20039;-60
2022/09/27 03:19:05;;;;;;;6.25;5.65;;;17.70;99.90;;;;;;5093494;28;20028;-61
2022/09/27 03:21:31;;;;;;;8.43;6.75;;;17.70;99.90;;;;;;5093883;28;20050;-62
2022/09/27 03:23:57;;;;;;;6.20;5.60;;;17.70;99.90;;;;;;5094557;28;20024;-60
2022/09/27 03:26:22;;;;;;;5.95;5.43;;;17.70;99.90;;;;;;5094177;28;20024;-60
2022/09/27 03:28:48;;;;;;;5.57;5.07;;;17.70;99.90;;;;;;5094096;28;20455;-61
2022/09/27 03:31:13;;;;;;;5.32;4.82;;;17.70;99.90;;;;;;5093991;28;20086;-62
2022/09/27 03:33:39;;;;;;;5.40;4.88;;;17.70;99.90;;;;;;5093791;28;20020;-61
2022/09/27 03:36:06;;;;;;;5.18;4.68;;;17.60;99.90;;;;;;5093553;28;20027;-61
2022/09/27 03:38:32;;;;;;;5.35;4.95;;;17.70;99.90;;;;;;5093949;28;20024;-61
2022/09/27 03:40:58;;;;;;;4.90;4.50;;;17.60;99.90;;;;;;5093745;28;20024;-62
2022/09/27 03:43:24;;;;;;;4.75;4.38;;;17.70;99.90;;;;;;5093813;28;20020;-63
2022/09/27 03:45:50;;;;;;;4.57;3.95;;;17.70;99.90;;;;;;5093669;28;20466;-63
2022/09/27 03:48:15;;;;;;;4.35;3.95;;;17.70;99.90;;;;;;5093616;28;20077;-61
2022/09/27 03:50:41;;;;;;;4.60;4.20;;;17.70;99.90;;;;;;5093292;28;20059;-62
2022/09/27 03:53:07;;;;;;;4.78;4.22;;;17.70;99.90;;;;;;5093861;28;20020;-63
2022/09/27 03:55:34;;;;;;;5.35;4.53;;;17.70;99.90;;;;;;5093816;28;20174;-60
2022/09/27 03:57:59;;;;;;;6.15;5.30;;;17.70;99.90;;;;;;5093727;28;20020;-62
2022/09/27 04:00:25;;;;;;;5.40;4.90;;;17.70;99.90;;;;;;5093699;28;20020;-61
2022/09/27 04:02:51;;;;;;;5.22;4.72;;;17.70;99.90;;;;;;5093479;28;20115;-62
2022/09/27 04:05:16;;;;;;;5.22;4.72;;;17.70;99.90;;;;;;5093187;28;20024;-62
2022/09/27 04:07:48;;;;;;;6.35;5.60;;;17.70;99.90;;;;;;5093053;28;20032;-61
2022/09/27 04:10:15;;;;;;;5.97;5.38;;;17.60;99.90;;;;;;5093583;28;20032;-62
2022/09/27 04:12:40;;;;;;;5.50;5.00;;;17.60;99.90;;;;;;5093409;28;20020;-62
2022/09/27 04:15:07;;;;;;;9.48;7.05;;;17.60;99.90;;;;;;5093469;28;20103;-63
2022/09/27 04:17:33;;;;;;;9.70;7.88;;;17.60;99.90;;;;;;5093312;28;20040;-61
2022/09/27 04:20:01;;;;;;;7.95;7.10;;;17.50;99.90;;;;;;5093127;28;20470;-62
2022/09/27 04:22:27;;;;;;;13.20;10.48;;;17.40;99.90;;;;;;5093406;28;20028;-62
2022/09/27 04:24:52;;;;;;;12.07;9.85;;;17.40;99.90;;;;;;5093233;28;20475;-60
2022/09/27 04:27:18;;;;;;;9.20;7.95;;;17.40;99.90;;;;;;5093496;28;20103;-62
2022/09/27 04:29:44;;;;;;;8.10;7.30;;;17.40;99.90;;;;;;5093675;28;20024;-61
2022/09/27 04:32:11;;;;;;;7.25;6.55;;;17.40;99.90;;;;;;5097362;28;20028;-62
2022/09/27 04:37:21;;;;;;;11.52;8.60;;;17.50;99.90;;;;;;5097341;28;20027;-61
2022/09/27 04:39:48;;;;;;;9.23;7.78;;;17.50;99.90;;;;;;5097100;28;20024;-61
2022/09/27 04:42:14;;;;;;;14.63;9.00;;;17.40;99.90;;;;;;5097091;28;20147;-61
2022/09/27 04:44:40;;;;;;;8.43;7.63;;;17.30;99.90;;;;;;5097049;28;20024;-61
2022/09/27 04:47:06;;;;;;;9.73;8.48;;;17.20;99.90;;;;;;5097294;28;20027;-60
2022/09/27 04:49:31;;;;;;;8.18;7.38;;;17.20;99.90;;;;;;5096630;28;20465;-62
2022/09/27 04:51:57;;;;;;;18.08;10.05;;;17.20;99.90;;;;;;5096887;28;20028;-61
2022/09/27 04:54:23;;;;;;;26.77;12.27;;;17.10;99.90;;;;;;5097170;28;20020;-62
2022/09/27 04:56:48;;;;;;;11.48;9.20;;;17.10;99.90;;;;;;5084443;28;20035;-61
2022/09/27 04:59:14;;;;;;;10.57;9.38;;;17.00;99.90;;;;;;5084367;28;20020;-60
2022/09/27 05:01:40;;;;;;;73.45;18.05;;;17.00;99.90;;;;;;5096465;28;20024;-60
2022/09/27 05:04:06;;;;;;;18.25;11.70;;;17.00;99.90;;;;;;5096272;28;20024;-61
2022/09/27 05:06:31;;;;;;;18.10;10.45;;;16.90;99.90;;;;;;5096562;28;20028;-61
2022/09/27 05:08:57;;;;;;;38.35;11.30;;;16.80;99.90;;;;;;5092652;28;20132;-62
2022/09/27 05:11:23;;;;;;;15.40;10.57;;;16.80;99.90;;;;;;5076182;28;20138;-60
2022/09/27 05:13:49;;;;;;;15.23;9.68;;;16.70;99.90;;;;;;5084385;28;20103;-60
2022/09/27 05:16:16;;;;;;;19.55;10.50;;;16.80;99.90;;;;;;5096311;28;20527;-60
2022/09/27 05:18:41;;;;;;;22.33;11.07;;;16.70;99.90;;;;;;5096666;28;20084;-60
2022/09/27 05:21:07;;;;;;;10.38;8.13;;;16.70;99.90;;;;;;5095783;28;20424;-61
2022/09/27 05:23:33;;;;;;;33.17;11.60;;;16.80;99.90;;;;;;5096185;28;20025;-61
2022/09/27 05:26:03;;;;;;;8.10;7.10;;;16.90;99.90;;;;;;5096243;28;20024;-61
2022/09/27 05:28:30;;;;;;;8.05;6.75;;;17.00;99.90;;;;;;5096144;28;20123;-62
2022/09/27 05:30:55;;;;;;;11.93;7.30;;;17.10;99.90;;;;;;5096163;28;20016;-61
2022/09/27 05:33:21;;;;;;;14.27;8.27;;;17.10;99.90;;;;;;5095920;28;20016;-62
2022/09/27 05:35:54;;;;;;;38.83;10.85;;;17.10;99.90;;;;;;5096007;28;20035;-62
2022/09/27 05:38:20;;;;;;;8.02;7.22;;;17.10;99.90;;;;;;5094483;28;20020;-60
2022/09/27 05:40:49;;;;;;;6.97;6.07;;;17.10;99.90;;;;;;5083966;28;20406;-60
2022/09/27 05:43:15;;;;;;;5.72;5.22;;;17.10;99.90;;;;;;5084128;28;20039;-60
2022/09/27 05:45:41;;;;;;;5.90;5.30;;;17.20;99.90;;;;;;5093205;28;20048;-62
2022/09/27 05:48:07;;;;;;;6.53;5.93;;;17.20;99.90;;;;;;5093399;28;20440;-62
2022/09/27 05:50:33;;;;;;;5.68;5.07;;;17.20;99.90;;;;;;5093378;28;20020;-61
2022/09/27 05:52:59;;;;;;;5.13;4.72;;;17.20;99.90;;;;;;5087221;28;20034;-61
2022/09/27 05:55:24;;;;;;;5.60;5.10;;;17.30;99.90;;;;;;5095312;28;20028;-61
2022/09/27 05:58:04;;;;;;;6.47;5.88;;;17.40;99.90;;;;;;5086447;28;20451;-61
2022/09/27 06:00:31;;;;;;;7.80;7.03;;;17.40;99.90;;;;;;5084145;28;20098;-61
2022/09/27 06:02:59;;;;;;;6.53;5.93;;;17.40;99.90;;;;;;5095444;28;20023;-60
2022/09/27 06:05:26;;;;;;;6.97;6.32;;;17.40;99.90;;;;;;5076504;28;20037;-62
2022/09/27 06:08:01;;;;;;;7.78;7.07;;;17.60;99.90;;;;;;5086552;28;20044;-60
2022/09/27 06:10:28;;;;;;;6.80;6.20;;;17.60;99.90;;;;;;5075026;28;20064;-61
2022/09/27 06:13:01;;;;;;;6.03;5.53;;;17.90;99.90;;;;;;5075036;28;20035;-61
2022/09/27 06:15:27;;;;;;;5.97;5.47;;;18.30;99.90;;;;;;5075007;28;20063;-60
2022/09/27 06:17:53;;;;;;;5.30;4.90;;;18.50;99.90;;;;;;5077157;28;20497;-61
2022/09/27 06:20:19;;;;;;;9.45;8.48;;;18.60;99.90;;;;;;5082324;28;20028;-62
2022/09/27 06:22:45;;;;;;;7.78;6.97;;;18.60;99.90;;;;;;5083228;28;20032;-61
2022/09/27 06:25:11;;;;;;;7.88;7.18;;;18.60;99.90;;;;;;5077984;28;20385;-61
2022/09/27 06:27:37;;;;;;;6.32;5.80;;;18.80;99.90;;;;;;5082304;28;20026;-60
2022/09/27 06:30:04;;;;;;;8.07;7.28;;;19.80;99.90;;;;;;5080916;28;20156;-60
2022/09/27 06:32:31;;;;;;;9.35;7.70;;;20.00;99.90;;;;;;5083532;28;20068;-62
2022/09/27 06:34:57;;;;;;;6.88;6.28;;;20.60;99.90;;;;;;5077899;28;20081;-61
2022/09/27 06:37:26;;;;;;;6.88;6.25;;;21.20;99.90;;;;;;5090821;28;20471;-61
2022/09/27 06:39:52;;;;;;;7.60;6.80;;;22.50;99.90;;;;;;5078027;28;20099;-60
2022/09/27 06:42:19;;;;;;;10.80;9.70;;;22.00;99.90;;;;;;5073301;28;20382;-61
2022/09/27 06:44:48;;;;;;;10.43;9.35;;;21.40;99.90;;;;;;5076177;28;20033;-62
2022/09/27 06:47:15;;;;;;;8.93;8.13;;;20.70;99.90;;;;;;5081343;28;20028;-60
2022/09/27 06:49:41;;;;;;;7.22;6.63;;;20.30;99.90;;;;;;5079327;28;20041;-60
2022/09/27 06:52:07;;;;;;;6.47;5.88;;;20.10;99.90;;;;;;5076193;28;20133;-61
2022/09/27 06:54:36;;;;;;;7.35;6.75;;;20.00;99.90;;;;;;5080548;28;20028;-60
2022/09/27 06:57:01;;;;;;;7.13;6.43;;;19.80;99.90;;;;;;5073524;28;20012;-62
2022/09/27 07:02:15;;;;;;;7.00;6.30;;;19.40;99.90;;;;;;5088094;28;20039;-61
2022/09/27 07:04:41;;;;;;;7.13;6.53;;;19.30;99.90;;;;;;5087591;28;20442;-63
2022/09/27 07:07:06;;;;;;;7.07;6.47;;;19.20;99.90;;;;;;5081171;28;20024;-60
2022/09/27 07:09:32;;;;;;;5.93;5.43;;;19.20;99.90;;;;;;5086585;28;20493;-62
2022/09/27 07:11:59;;;;;;;7.45;5.40;;;19.20;99.90;;;;;;5089867;28;20025;-61
2022/09/27 07:14:25;;;;;;;5.63;5.22;;;19.30;99.90;;;;;;5087608;28;20067;-62
2022/09/27 07:16:51;;;;;;;5.57;5.10;;;19.40;99.90;;;;;;5081054;28;20079;-63
2022/09/27 07:19:17;;;;;;;4.95;4.50;;;19.70;99.90;;;;;;5088160;28;20478;-60
2022/09/27 07:21:43;;;;;;;4.88;4.47;;;20.10;99.90;;;;;;5087817;28;20031;-60
2022/09/27 07:24:09;;;;;;;5.72;5.22;;;20.50;99.90;;;;;;5078189;28;20042;-62
2022/09/27 07:26:35;;;;;;;5.25;4.50;;;20.50;99.90;;;;;;5082519;28;20032;-62
2022/09/27 07:29:01;;;;;;;4.95;4.45;;;20.60;99.90;;;;;;5072897;28;20068;-61
2022/09/27 07:31:27;;;;;;;4.30;4.00;;;20.70;99.90;;;;;;5089130;28;20390;-61
2022/09/27 07:33:53;;;;;;;4.63;4.10;;;21.10;99.90;;;;;;5082349;28;20445;-62
2022/09/27 07:36:19;;;;;;;5.03;4.63;;;21.30;99.90;;;;;;5081929;28;20028;-62
2022/09/27 07:38:45;;;;;;;4.50;4.10;;;21.10;99.90;;;;;;5077816;28;20031;-62
2022/09/27 07:41:15;;;;;;;5.43;4.93;;;20.90;99.90;;;;;;5079205;28;20436;-60
2022/09/27 07:43:45;;;;;;;6.07;5.57;;;20.90;99.90;;;;;;5082738;28;20048;-61
2022/09/27 07:46:12;;;;;;;5.78;5.28;;;21.90;99.90;;;;;;5076904;28;20030;-61
2022/09/27 07:48:37;;;;;;;6.03;5.43;;;23.80;99.90;;;;;;5081215;28;20039;-61
2022/09/27 07:51:06;;;;;;;6.20;4.80;;;24.00;99.90;;;;;;5075306;28;20038;-61
2022/09/27 07:53:32;;;;;;;6.18;5.57;;;23.90;99.90;;;;;;5081862;28;20459;-62
2022/09/27 07:55:58;;;;;;;5.90;5.40;;;23.30;99.90;;;;;;5083520;28;20024;-62
2022/09/27 07:58:24;;;;;;;8.82;7.93;;;22.70;99.90;;;;;;5084198;28;20024;-61
2022/09/27 08:00:50;;;;;;;8.48;7.70;;;22.10;99.90;;;;;;5082320;28;20370;-61
2022/09/27 08:03:16;;;;;;;11.75;10.57;;;21.70;99.90;;;;;;5082666;28;20073;-61
2022/09/27 08:05:44;;;;;;;9.70;8.80;;;21.30;99.90;;;;;;5063387;28;20024;-61
2022/09/27 08:08:10;;;;;;;10.80;9.75;;;20.90;99.90;;;;;;5075911;28;20387;-61
2022/09/27 08:10:36;;;;;;;10.05;9.07;;;20.80;99.90;;;;;;5083078;28;20500;-61
2022/09/27 08:13:03;;;;;;;12.40;11.20;;;20.50;99.90;;;;;;5086077;28;20020;-61
2022/09/27 08:15:32;;;;;;;10.40;9.40;;;20.40;99.90;;;;;;5086649;28;20059;-62
2022/09/27 08:17:58;;;;;;;9.10;8.25;;;20.40;99.90;;;;;;5087763;28;20815;-61
2022/09/27 08:20:24;;;;;;;8.57;7.80;;;20.60;99.90;;;;;;5083445;28;20039;-60
2022/09/27 08:22:49;;;;;;;7.93;7.10;;;20.60;99.90;;;;;;5086835;28;20032;-61
2022/09/27 08:25:16;;;;;;;7.30;6.70;;;20.70;99.90;;;;;;5085722;28;20043;-61
2022/09/27 08:27:42;;;;;;;7.78;7.07;;;21.10;99.90;;;;;;5052148;28;20028;-62
2022/09/27 08:30:08;;;;;;;9.95;9.05;;;21.60;99.90;;;;;;5086795;28;20509;-60
2022/09/27 08:32:33;;;;;;;7.75;7.05;;;21.80;99.90;;;;;;5087864;28;20455;-61
2022/09/27 08:34:59;;;;;;;6.60;6.10;;;21.80;99.90;;;;;;5090356;28;20118;-62
2022/09/27 08:37:25;;;;;;;8.90;7.97;;;21.80;99.90;;;;;;5088307;28;20027;-60
2022/09/27 08:39:51;;;;;;;8.20;7.35;;;21.70;99.90;;;;;;5076929;28;20024;-61
2022/09/27 08:42:17;;;;;;;9.90;9.00;;;21.50;99.90;;;;;;5080467;28;20020;-61
2022/09/27 08:44:49;;;;;;;10.52;9.43;;;21.30;99.90;;;;;;5078539;28;20032;-61
2022/09/27 08:47:23;;;;;;;8.88;8.13;;;21.20;99.90;;;;;;5082249;28;20089;-64
2022/09/27 08:50:00;;;;;;;8.50;7.80;;;21.20;99.90;;;;;;5083292;28;20139;-61
2022/09/27 08:53:17;;;;;;;7.45;6.85;;;21.10;99.90;;;;;;5071331;28;20512;-65
2022/09/27 08:55:54;;;;;;;10.80;9.80;;;21.10;99.90;;;;;;5079485;28;20032;-63
2022/09/27 08:58:26;;;;;;;14.52;13.13;;;21.00;99.90;;;;;;5084780;28;20382;-63
2022/09/27 09:00:55;;;;;;;11.02;10.02;;;20.70;99.90;;;;;;5077275;28;20563;-64
2022/09/27 09:03:31;;;;;;;10.95;9.90;;;20.70;99.90;;;;;;5076643;28;20123;-63
2022/09/27 09:06:21;;;;;;;11.05;9.32;;;20.70;99.90;;;;;;5082100;28;20063;-62
2022/09/27 09:09:16;;;;;;;7.72;7.13;;;20.60;99.90;;;;;;5069498;28;20098;-63
2022/09/27 09:15:16;;;;;;;6.38;5.78;;;20.50;99.90;;;;;;5069863;28;20075;-61
2022/09/27 09:18:15;;;;;;;7.50;6.75;;;20.60;99.90;;;;;;5084168;28;20034;-63
2022/09/27 09:21:18;;;;;;;5.35;4.95;;;20.70;99.90;;;;;;5087078;28;20052;-62
2022/09/27 09:23:52;;;;;;;7.00;5.22;;;20.80;99.90;;;;;;5083553;28;20036;-61
2022/09/27 09:26:18;;;;;;;5.10;4.60;;;20.80;99.90;;;;;;5084327;28;20036;-61
2022/09/27 09:29:24;;;;;;;4.78;4.38;;;20.80;99.90;;;;;;5082517;28;20075;-61
2022/09/27 09:32:04;;;;;;;4.40;4.05;;;20.80;99.90;;;;;;5083179;28;20100;-62
2022/09/27 09:34:43;;;;;;;4.40;4.00;;;20.80;99.90;;;;;;5078564;28;20061;-62
2022/09/27 09:37:20;;;;;;;4.65;4.25;;;20.80;99.90;;;;;;5072951;28;20386;-61
2022/09/27 09:39:54;;;;;;;5.10;4.70;;;20.80;99.90;;;;;;5078804;28;20032;-63
2022/09/27 09:42:39;;;;;;;4.63;4.22;;;20.80;99.90;;;;;;5080711;28;20020;-62
2022/09/27 09:45:44;;;;;;;4.22;3.92;;;20.80;99.90;;;;;;5074708;28;20505;-61
2022/09/27 09:48:21;;;;;;;4.57;4.18;;;20.80;99.90;;;;;;5086166;28;20028;-59
2022/09/27 09:50:58;;;;;;;5.30;4.80;;;20.80;99.90;;;;;;5090026;28;20104;-61
2022/09/27 09:53:59;;;;;;;4.93;4.53;;;20.70;99.90;;;;;;5088127;28;20032;-61
2022/09/27 09:56:48;;;;;;;7.93;7.10;;;20.40;99.90;;;;;;5085385;28;20039;-60
2022/09/27 09:59:29;;;;;;;7.22;6.55;;;20.10;99.90;;;;;;5087782;28;20037;-60
2022/09/27 10:02:14;;;;;;;8.10;7.32;;;20.00;99.90;;;;;;5086268;28;20035;-61
2022/09/27 10:04:39;;;;;;;8.50;7.25;;;19.70;99.90;;;;;;5089417;28;20026;-62
2022/09/27 10:07:07;;;;;;;8.15;7.35;;;19.40;99.90;;;;;;5087606;28;20111;-60
2022/09/27 10:09:33;;;;;;;8.20;7.40;;;19.20;99.90;;;;;;5079664;28;20036;-61
2022/09/27 10:11:59;;;;;;;11.48;8.77;;;19.10;99.90;;;;;;5089187;28;20505;-60
2022/09/27 10:14:26;;;;;;;7.53;6.80;;;19.10;99.90;;;;;;5082791;28;20024;-62
2022/09/27 10:16:58;;;;;;;8.30;7.45;;;19.10;99.90;;;;;;5082223;28;20028;-60
2022/09/27 10:19:30;;;;;;;9.85;8.60;;;19.10;99.90;;;;;;5083234;28;20032;-60
2022/09/27 10:22:03;;;;;;;32.75;18.80;;;19.10;99.90;;;;;;5087987;28;20060;-60
2022/09/27 10:24:29;;;;;;;28.58;19.30;;;19.00;99.90;;;;;;5091973;28;20099;-61
2022/09/27 10:27:00;;;;;;;36.47;21.98;;;19.00;99.90;;;;;;5092023;28;20043;-59
2022/09/27 10:29:32;;;;;;;27.60;19.10;;;18.90;99.90;;;;;;5087115;28;20074;-61
2022/09/27 10:32:03;;;;;;;27.30;18.40;;;18.90;99.90;;;;;;5091497;28;20024;-63
2022/09/27 10:34:36;;;;;;;36.40;21.25;;;18.90;99.90;;;;;;5088860;28;20089;-60
2022/09/27 10:37:12;;;;;;;26.02;17.35;;;18.80;99.90;;;;;;5089497;28;20031;-62
2022/09/27 10:39:46;;;;;;;23.25;17.73;;;18.90;99.90;;;;;;5089435;28;20103;-62
2022/09/27 10:42:35;;;;;;;32.40;18.90;;;18.90;99.90;;;;;;5090746;28;20024;-62
2022/09/27 10:45:31;;;;;;;27.60;18.25;;;18.90;99.90;;;;;;5085340;28;20021;-60
2022/09/27 10:47:59;;;;;;;21.30;13.77;;;18.80;99.90;;;;;;5090165;28;20047;-62
2022/09/27 10:50:34;;;;;;;16.35;11.98;;;18.70;99.90;;;;;;5089584;28;20020;-63
2022/09/27 10:53:18;;;;;;;18.52;13.15;;;18.80;99.90;;;;;;5082346;28;20444;-62
2022/09/27 10:55:59;;;;;;;14.80;10.40;;;18.80;99.90;;;;;;5083763;28;20032;-61
2022/09/27 10:58:35;;;;;;;26.83;19.60;;;18.80;99.90;;;;;;5089233;28;20031;-59
2022/09/27 11:01:11;;;;;;;22.90;16.40;;;18.80;99.90;;;;;;5090307;28;20497;-61
2022/09/27 11:03:46;;;;;;;16.42;12.70;;;18.80;99.90;;;;;;5070116;28;20382;-63
2022/09/27 11:06:39;;;;;;;20.23;13.38;;;18.70;99.90;;;;;;5085278;28;20053;-60
2022/09/27 11:09:28;;;;;;;15.95;12.25;;;18.60;99.90;;;;;;5091248;28;20062;-61
2022/09/27 11:12:12;;;;;;;14.40;11.75;;;18.70;99.90;;;;;;5093523;28;20032;-60
2022/09/27 11:14:40;;;;;;;19.90;14.68;;;18.80;99.90;;;;;;5083568;28;20081;-59
2022/09/27 11:17:19;;;;;;;17.85;13.38;;;18.60;99.90;;;;;;5086663;28;20092;-65
2022/09/27 11:20:07;;;;;;;22.10;15.45;;;18.60;99.90;;;;;;5082268;28;20032;-62
2022/09/27 11:23:11;;;;;;;19.02;14.85;;;18.70;99.90;;;;;;5070319;28;20498;-62
2022/09/27 11:25:58;;;;;;;18.43;14.60;;;18.70;99.90;;;;;;5084737;28;20028;-63
2022/09/27 11:29:02;;;;;;;16.42;13.63;;;18.80;99.90;;;;;;5077199;28;20067;-62
2022/09/27 11:32:06;;;;;;;13.63;12.20;;;19.00;99.90;;;;;;5070130;28;20076;-62
2022/09/27 11:35:01;;;;;;;17.35;12.90;;;19.40;99.90;;;;;;5087725;28;20028;-60
2022/09/27 11:37:40;;;;;;;14.23;10.73;;;19.50;99.90;;;;;;5087557;28;20114;-60
2022/09/27 11:40:43;;;;;;;11.93;10.00;;;19.70;99.90;;;;;;5082908;28;20082;-61
2022/09/27 11:43:26;;;;;;;10.23;9.05;;;20.00;99.90;;;;;;5077764;28;20024;-61
2022/09/27 11:46:10;;;;;;;10.02;8.95;;;20.20;99.90;;;;;;5074846;28;20028;-62
2022/09/27 11:48:39;;;;;;;8.45;7.30;;;20.50;99.90;;;;;;5076912;28;20035;-62
2022/09/27 11:51:12;;;;;;;8.98;8.07;;;21.00;99.90;;;;;;5084362;28;20024;-63
2022/09/27 11:54:02;;;;;;;7.53;6.72;;;21.40;99.90;;;;;;5092073;28;20080;-60
2022/09/27 11:56:37;;;;;;;7.45;6.75;;;21.90;99.90;;;;;;5092179;28;20031;-61
2022/09/27 11:59:11;;;;;;;6.57;5.88;;;22.10;99.90;;;;;;5091726;28;20024;-61
2022/09/27 12:01:51;;;;;;;8.65;6.50;;;22.30;99.90;;;;;;5092957;28;20525;-60
2022/09/27 12:04:29;;;;;;;8.40;6.57;;;22.70;99.90;;;;;;5092730;28;20052;-63
2022/09/27 12:07:26;;;;;;;5.75;5.25;;;23.00;99.90;;;;;;5081685;28;20043;-61
2022/09/27 12:10:01;;;;;;;6.30;5.70;;;23.40;99.90;;;;;;5078181;28;20052;-60
2022/09/27 12:12:34;;;;;;;4.97;4.50;;;23.60;99.90;;;;;;5086983;28;20032;-62
2022/09/27 12:15:01;;;;;;;;;;;23.60;99.90;;;;;;5079566;28;20046;-59
2022/09/27 12:17:32;;;;;;;3.72;3.35;;;23.60;99.90;;;;;;5074277;28;20007;-63
2022/09/27 12:20:02;;;;;;;4.70;4.30;;;23.90;99.90;;;;;;5086377;28;20028;-61
2022/09/27 12:22:36;;;;;;;4.15;3.75;;;24.00;99.90;;;;;;5083797;28;20024;-63
2022/09/27 12:25:03;;;;;;;5.32;4.82;;;24.00;99.90;;;;;;5070676;28;20035;-61
2022/09/27 12:28:02;;;;;;;5.25;4.40;;;23.80;99.90;;;;;;5081879;28;20013;-63
2022/09/27 12:30:31;;;;;;;4.53;4.10;;;23.50;99.90;;;;;;5086043;28;20418;-62
2022/09/27 12:33:13;;;;;;;4.55;4.15;;;23.30;99.90;;;;;;5068947;28;20017;-63
2022/09/27 12:35:49;;;;;;;3.67;3.33;;;23.10;99.90;;;;;;5072962;28;20040;-61
2022/09/27 12:38:24;;;;;;;3.85;3.33;;;23.30;99.90;;;;;;5082849;28;20029;-60
2022/09/27 12:40:54;;;;;;;4.40;4.00;;;23.50;99.90;;;;;;5078924;28;20060;-63
2022/09/27 12:43:20;;;;;;;5.65;4.45;;;23.90;99.90;;;;;;5091172;28;20070;-61
2022/09/27 12:45:58;;;;;;;5.70;5.20;;;24.20;99.90;;;;;;5091512;28;20070;-60
2022/09/27 12:48:48;;;;;;;4.82;4.43;;;24.10;99.90;;;;;;5082348;28;20077;-60
2022/09/27 12:51:19;;;;;;;4.22;3.92;;;24.20;99.90;;;;;;5089510;28;20028;-63
2022/09/27 12:53:51;;;;;;;3.63;3.33;;;24.50;99.30;;;;;;5076487;28;20031;-63
2022/09/27 12:56:28;;;;;;;3.50;3.20;;;24.90;99.90;;;;;;5073438;28;20367;-61
2022/09/27 12:59:05;;;;;;;3.97;3.58;;;24.90;96.80;;;;;;5088721;28;20047;-59
2022/09/27 13:01:36;;;;;;;3.05;2.67;;;24.80;96.50;;;;;;5093021;28;20016;-61
2022/09/27 13:04:23;;;;;;;3.20;2.90;;;25.00;95.90;;;;;;5083678;28;20107;-61
2022/09/27 13:07:20;;;;;;;3.20;2.72;;;25.30;95.30;;;;;;5087686;28;20167;-61
2022/09/27 13:09:45;;;;;;;3.53;2.80;;;25.00;90.90;;;;;;5074373;28;20044;-59
2022/09/27 13:12:25;;;;;;;3.47;2.60;;;24.50;92.40;;;;;;5075506;28;20036;-58
2022/09/27 13:14:53;;;;;;;2.78;2.45;;;24.30;90.80;;;;;;5075148;28;20070;-61
2022/09/27 13:17:39;;;;;;;1.92;1.83;;;23.80;92.20;;;;;;5072610;28;20387;-60
2022/09/27 13:20:30;;;;;;;2.47;2.28;;;23.80;96.10;;;;;;5072307;28;20521;-59